Time;durP1;ratioP1;P1;durP2;ratioP2;P2;SDS_P1;SDS_P2;PMS_P1;PMS_P2;Temp;Humidity;BMP_temperature;BMP_pressure;BME280_temperature;BME280_humidity;BME280_pressure;Samples;Min_cycle;Max_cycle;Signal;HPM_P1;HPM_P2
2021/06/29 00:00:17;;;;;;;;;;;;;;;31.31;33.83;99888.81;4472091;31;774290;-86
2021/06/29 00:03:06;;;;;;;;;;;;;;;31.20;34.02;99897.28;4485522;31;853707;-85
2021/06/29 00:05:57;;;;;;;;;;;;;;;31.30;33.83;99891.69;4384368;31;3592976;-85
2021/06/29 00:08:50;;;;;;;;;;;;;;;31.80;32.87;99887.59;4471338;31;804615;-86
2021/06/29 00:11:46;;;;;;;;;;;;;;;31.19;33.83;99887.53;4518899;31;784623;-86
2021/06/29 00:14:34;;;;;;;;;;;;;;;31.20;33.82;99891.91;4378301;32;3777675;-85
2021/06/29 00:17:21;;;;;;;;;;;;;;;31.40;33.52;99883.34;4484140;31;816332;-85
2021/06/29 00:20:06;;;;;;;;;;;;;;;30.84;34.08;99881.66;4468490;32;807914;-87
2021/06/29 00:23:00;;;;;;;;;;;;;;;31.17;33.48;99883.38;4517180;31;760616;-87
2021/06/29 00:26:01;;;;;;;;;;;;;;;31.08;34.10;99886.09;4415417;31;3505625;-87
2021/06/29 00:28:47;;;;;;;;;;;;;;;30.69;34.56;99886.09;4381253;32;3614576;-89
2021/06/29 00:31:35;;;;;;;;;;;;;;;31.19;33.90;99889.41;4471103;31;761518;-85
2021/06/29 00:34:39;;;;;;;;;;;;;;;30.75;34.58;99885.41;4467359;31;841171;-85
2021/06/29 00:37:37;;;;;;;;;;;;;;;31.05;33.73;99889.16;4395319;31;3660293;-86
2021/06/29 00:40:29;;;;;;;;;;;;;;;30.53;34.59;99879.78;4501324;31;812132;-85
2021/06/29 00:43:21;;;;;;;;;;;;;;;30.64;34.32;99882.09;4468720;32;807657;-87
2021/06/29 00:46:19;;;;;;;;;;;;;;;30.21;34.86;99881.56;4413467;31;3561179;-86
2021/06/29 00:59:44;;;;;;;;;;;;;;;30.26;34.42;99871.13;4437489;32;796311;-84
2021/06/29 01:02:37;;;;;;;;;;;;;;;30.13;34.54;99868.16;4469003;32;793114;-83
2021/06/29 01:05:26;;;;;;;;;;;;;;;29.80;34.91;99869.00;4178801;32;9661631;-87
2021/06/29 01:08:20;;;;;;;;;;;;;;;29.45;35.57;99867.50;4482029;31;877012;-88
2021/06/29 01:11:06;;;;;;;;;;;;;;;30.33;34.16;99865.91;4468996;32;793720;-86
2021/06/29 01:13:53;;;;;;;;;;;;;;;30.71;33.37;99868.78;4466654;32;870561;-87
2021/06/29 01:17:00;;;;;;;;;;;;;;;30.18;34.19;99865.75;4466028;31;914534;-87
2021/06/29 01:19:58;;;;;;;;;;;;;;;30.52;33.69;99861.16;4467250;32;841035;-86
2021/06/29 01:22:51;;;;;;;;;;;;;;;30.78;33.19;99852.78;4468264;31;821498;-87
2021/06/29 01:25:39;;;;;;;;;;;;;;;30.19;34.36;99856.69;4469308;32;798959;-87
2021/06/29 01:28:31;;;;;;;;;;;;;;;30.29;34.13;99854.66;4483857;31;823892;-87
2021/06/29 01:31:21;;;;;;;;;;;;;;;30.18;34.35;99854.19;4468664;32;807887;-85
2021/06/29 01:34:09;;;;;;;;;;;;;;;30.20;34.24;99847.63;4467404;32;856476;-85
2021/06/29 01:36:57;;;;;;;;;;;;;;;29.37;35.79;99840.66;4468341;32;813059;-84
2021/06/29 01:39:57;;;;;;;;;;;;;;;30.09;34.40;99839.91;4483648;31;829299;-85
2021/06/29 01:42:49;;;;;;;;;;;;;;;29.70;34.92;99841.47;4379041;31;3725461;-87
2021/06/29 01:45:48;;;;;;;;;;;;;;;29.52;35.09;99844.38;4518908;31;750422;-84
2021/06/29 01:48:47;;;;;;;;;;;;;;;30.13;34.03;99847.47;4466392;32;869615;-84
2021/06/29 01:51:40;;;;;;;;;;;;;;;29.88;34.48;99848.56;4468531;31;819546;-85
2021/06/29 01:54:28;;;;;;;;;;;;;;;29.56;34.88;99853.75;4461842;32;1027100;-85
2021/06/29 02:07:40;;;;;;;;;;;;;;;29.47;35.04;99860.97;4468397;32;796665;-86
2021/06/29 02:10:27;;;;;;;;;;;;;;;29.39;34.92;99860.12;4468897;32;843576;-86
2021/06/29 02:13:20;;;;;;;;;;;;;;;29.47;34.84;99860.12;4501596;31;820541;-87
2021/06/29 02:16:09;;;;;;;;;;;;;;;29.15;35.45;99867.12;4455635;31;899179;-86
2021/06/29 02:19:09;;;;;;;;;;;;;;;30.27;33.16;99862.03;4517786;31;733800;-87
2021/06/29 02:32:17;;;;;;;;;;;;;;;29.22;35.01;99865.44;4469780;31;791426;-86
2021/06/29 02:35:15;;;;;;;;;;;;;;;29.44;34.38;99860.47;4469951;31;809038;-87
2021/06/29 02:38:04;;;;;;;;;;;;;;;28.67;35.71;99866.81;4470349;31;796214;-87
2021/06/29 02:40:57;;;;;;;;;;;;;;;26.65;40.06;99861.13;4469028;32;840900;-86
2021/06/29 02:43:49;;;;;;;;;;;;;;;26.43;40.32;99863.19;4470185;31;802455;-87
2021/06/29 02:46:46;;;;;;;;;;;;;;;28.03;37.34;99863.63;4462655;31;1041545;-85
2021/06/29 02:49:36;;;;;;;;;;;;;;;28.28;36.75;99862.78;4468600;31;804237;-85
2021/06/29 02:52:25;;;;;;;;;;;;;;;28.66;36.15;99855.25;4382492;31;3566454;-87
2021/06/29 02:55:21;;;;;;;;;;;;;;;27.85;37.47;99861.81;4500491;31;846687;-86
2021/06/29 02:58:14;;;;;;;;;;;;;;;27.70;37.59;99852.69;4485206;31;787928;-85
2021/06/29 03:01:02;;;;;;;;;;;;;;;28.40;35.70;99860.66;4468591;31;811225;-88
2021/06/29 03:03:49;;;;;;;;;;;;;;;28.75;35.74;99857.97;4485257;31;787438;-85
2021/06/29 03:06:38;;;;;;;;;;;;;;;28.57;36.11;99853.50;4467536;32;849595;-87
2021/06/29 03:09:30;;;;;;;;;;;;;;;28.09;36.89;99863.00;4469972;31;804059;-85
2021/06/29 03:12:17;;;;;;;;;;;;;;;28.68;35.70;99859.59;4470305;31;752229;-85
2021/06/29 03:15:12;;;;;;;;;;;;;;;29.02;35.12;99851.50;4479519;31;849560;-85
2021/06/29 03:18:06;;;;;;;;;;;;;;;29.24;34.64;99860.75;4516865;31;760055;-87
2021/06/29 03:20:56;;;;;;;;;;;;;;;29.35;34.42;99851.56;4483615;31;837876;-85
2021/06/29 03:23:50;;;;;;;;;;;;;;;29.35;34.24;99854.25;4468405;32;815334;-84
2021/06/29 03:26:38;;;;;;;;;;;;;;;28.15;36.86;99857.00;4483618;31;829756;-85
2021/06/29 03:29:37;;;;;;;;;;;;;;;28.81;35.60;99855.47;4468925;32;795946;-84
2021/06/29 03:32:28;;;;;;;;;;;;;;;28.43;36.37;99856.81;4517324;31;755716;-88
2021/06/29 03:35:22;;;;;;;;;;;;;;;28.78;35.52;99863.00;4477022;31;1016882;-87
2021/06/29 03:38:22;;;;;;;;;;;;;;;28.53;36.10;99864.72;4467610;32;839038;-85
2021/06/29 03:41:16;;;;;;;;;;;;;;;29.14;34.88;99860.06;4501958;31;795834;-87
2021/06/29 03:44:08;;;;;;;;;;;;;;;29.22;34.58;99865.44;4363978;32;3722485;-89
2021/06/29 03:46:58;;;;;;;;;;;;;;;28.80;35.21;99861.84;4467150;32;842485;-87
2021/06/29 03:49:51;;;;;;;;;;;;;;;29.39;34.40;99855.59;4467833;32;832406;-87
2021/06/29 03:52:46;;;;;;;;;;;;;;;28.72;35.42;99855.59;4469184;31;835736;-86
2021/06/29 04:05:56;;;;;;;;;;;;;;;30.00;33.55;99857.59;4468027;31;841245;-88
2021/06/29 04:08:47;;;;;;;;;;;;;;;30.11;33.65;99862.09;4468898;31;796404;-84
2021/06/29 04:11:38;;;;;;;;;;;;;;;30.21;33.53;99867.25;4516383;31;786964;-86
2021/06/29 04:14:35;;;;;;;;;;;;;;;30.46;33.06;99859.97;4495760;31;1442552;-85
2021/06/29 04:31:27;;;;;;;;;;;;;;;30.32;33.78;99858.84;5297317;26;785484;-86
2021/06/29 04:34:21;;;;;;;;;;;;;;;30.54;33.55;99859.97;4469635;31;812192;-87
2021/06/29 04:37:18;;;;;;;;;;;;;;;30.43;33.91;99853.06;4258661;32;6660445;-85
2021/06/29 04:50:33;;;;;;;;;;;;;;;31.04;33.07;99859.72;5230813;26;3603977;-85
2021/06/29 04:53:36;;;;;;;;;;;;;;;30.84;33.22;99852.09;4516192;31;790664;-87
2021/06/29 04:56:26;;;;;;;;;;;;;;;31.54;32.61;99852.97;4450818;32;866726;-87
2021/06/29 04:59:36;;;;;;;;;;;;;;;32.01;32.06;99847.50;4502331;31;745660;-89
2021/06/29 05:02:44;;;;;;;;;;;;;;;31.59;32.91;99855.09;4486201;31;798728;-88
2021/06/29 05:05:36;;;;;;;;;;;;;;;31.90;33.60;99844.22;4484796;31;863189;-88
2021/06/29 05:08:41;;;;;;;;;;;;;;;31.89;33.75;99844.41;4514760;31;822904;-89
2021/06/29 05:11:39;;;;;;;;;;;;;;;31.86;34.03;99842.06;4514632;31;833242;-86
2021/06/29 05:24:47;;;;;;;;;;;;;;;32.06;33.87;99848.59;5323908;26;738106;-92
2021/06/29 05:27:43;;;;;;;;;;;;;;;31.90;34.19;99843.41;4468296;31;870143;-89
2021/06/29 05:41:10;;;;;;;;;;;;;;;32.10;33.17;99858.00;5361714;26;842837;-88
2021/06/29 05:54:34;;;;;;;;;;;;;;;32.68;32.26;99857.31;4387489;32;1967507;-87
2021/06/29 05:57:25;;;;;;;;;;;;;;;32.50;32.64;99854.22;4438430;31;3389661;-86
2021/06/29 06:00:11;;;;;;;;;;;;;;;32.76;31.92;99856.41;4262353;32;7041711;-87
2021/06/29 06:02:58;;;;;;;;;;;;;;;33.10;31.46;99850.34;4472815;31;788751;-86
2021/06/29 06:05:59;;;;;;;;;;;;;;;32.90;31.89;99852.00;4471426;31;800216;-84
2021/06/29 06:12:19;;;;;;;;;;;;;;;33.21;31.23;99853.56;4498564;31;33958;-85
2021/06/29 06:25:46;;;;;;;;;;;;;;;34.24;29.54;99863.97;5318102;26;2453428;-88
2021/06/29 06:28:39;;;;;;;;;;;;;;;34.37;29.32;99860.50;4503424;31;741126;-88
2021/06/29 06:41:46;;;;;;;;;;;;;;;34.13;29.91;99854.53;4485033;31;855386;-85
2021/06/29 06:44:31;;;;;;;;;;;;;;;34.78;28.73;99851.50;4471154;32;788141;-84
2021/06/29 06:47:16;;;;;;;;;;;;;;;34.62;28.93;99840.03;4471070;31;787027;-83
2021/06/29 06:50:05;;;;;;;;;;;;;;;35.16;27.98;99842.06;4471718;31;827532;-86
2021/06/29 06:52:56;;;;;;;;;;;;;;;34.77;28.76;99842.56;4469456;31;783715;-88
2021/06/29 06:55:43;;;;;;;;;;;;;;;34.53;29.26;99833.13;4469265;31;852847;-86
2021/06/29 06:58:34;;;;;;;;;;;;;;;34.86;28.65;99832.41;4475136;26;841018;31
2021/06/29 07:01:28;;;;;;;;;;;;;;;35.61;27.65;99832.28;4502381;31;814175;-91
2021/06/29 07:04:12;;;;;;;;;;;;;;;35.48;28.07;99840.44;4472147;31;780338;-89
2021/06/29 07:07:04;;;;;;;;;;;;;;;35.39;28.01;99839.78;4517710;31;791444;-84
2021/06/29 07:20:13;;;;;;;;;;;;;;;36.15;26.53;99831.38;5364244;26;740080;-82
2021/06/29 07:23:03;;;;;;;;;;;;;;;35.74;26.92;99830.59;4502569;31;784966;-82
2021/06/29 07:25:43;;;;;;;;;;;;;;;36.13;26.21;99826.19;4487770;31;781880;-84
2021/06/29 07:38:54;;;;;;;;;;;;;;;36.42;25.51;99829.44;4469200;32;832481;-81
2021/06/29 07:41:40;;;;;;;;;;;;;;;37.33;23.78;99819.31;4485177;31;792456;-81
2021/06/29 07:44:23;;;;;;;;;;;;;;;36.47;25.11;99824.19;4484687;31;796187;-81
2021/06/29 07:47:16;;;;;;;;;;;;;;;36.82;24.42;99814.84;4513146;31;956211;-84
2021/06/29 07:50:04;;;;;;;;;;;;;;;37.58;23.59;99815.75;4498303;31;786778;-81
2021/06/29 07:52:49;;;;;;;;;;;;;;;37.24;23.82;99815.19;4500466;31;852624;-80
2021/06/29 07:55:30;;;;;;;;;;;;;;;37.67;22.99;99814.41;4464059;31;785107;-84
2021/06/29 07:58:14;;;;;;;;;;;;;;;37.74;23.19;99817.06;4497349;31;956149;-82
2021/06/29 08:00:58;;;;;;;;;;;;;;;38.10;22.80;99808.13;4478573;31;788229;-84
2021/06/29 08:03:43;;;;;;;;;;;;;;;38.09;22.19;99809.19;4502629;31;787913;-82
2021/06/29 08:06:21;;;;;;;;;;;;;;;37.89;22.56;99806.69;4502240;31;791827;-81
2021/06/29 08:09:06;;;;;;;;;;;;;;;37.82;22.95;99810.53;4486580;31;784721;-84
2021/06/29 08:11:57;;;;;;;;;;;;;;;38.39;22.09;99811.16;4482688;31;869952;-82
2021/06/29 08:14:40;;;;;;;;;;;;;;;38.25;22.22;99812.38;4485266;31;791699;-80
2021/06/29 08:27:45;;;;;;;;;;;;;;;39.19;20.12;99814.66;4464417;31;975824;-82
2021/06/29 08:30:36;;;;;;;;;;;;;;;38.45;20.69;99809.38;4502407;31;785769;-82
2021/06/29 08:33:21;;;;;;;;;;;;;;;39.57;19.67;99807.94;4502483;31;788865;-81
2021/06/29 08:36:06;;;;;;;;;;;;;;;39.20;19.97;99815.50;4485313;31;784050;-84
2021/06/29 08:38:54;;;;;;;;;;;;;;;38.47;19.67;99809.16;4500988;31;829539;-81
2021/06/29 08:41:44;;;;;;;;;;;;;;;38.92;19.63;99817.75;4502561;31;786334;-81
2021/06/29 08:44:24;;;;;;;;;;;;;;;39.44;18.83;99813.62;4519929;31;736871;-82
2021/06/29 08:47:13;;;;;;;;;;;;;;;39.11;19.20;99812.25;4502116;31;800811;-82
2021/06/29 08:49:56;;;;;;;;;;;;;;;39.30;18.96;99807.53;4502459;31;791289;-81
2021/06/29 08:52:37;;;;;;;;;;;;;;;39.72;18.28;99803.91;4502533;31;795160;-83
2021/06/29 08:55:19;;;;;;;;;;;;;;;39.16;19.01;99803.34;4500107;31;870280;-83
2021/06/29 08:58:01;;;;;;;;;;;;;;;39.40;18.85;99801.53;4498982;31;901971;-80
2021/06/29 09:00:43;;;;;;;;;;;;;;;39.80;18.77;99803.56;4493944;31;852946;-81
2021/06/29 09:03:31;;;;;;;;;;;;;;;38.97;18.89;99800.72;4502084;31;797981;-81
2021/06/29 09:06:11;;;;;;;;;;;;;;;39.02;18.71;99798.13;4502762;31;781604;-82
2021/06/29 09:08:53;;;;;;;;;;;;;;;40.09;18.11;99798.19;4487112;31;791018;-84
2021/06/29 09:11:44;;;;;;;;;;;;;;;39.77;18.53;99797.72;4519561;31;740493;-83
2021/06/29 09:14:31;;;;;;;;;;;;;;;39.34;19.03;99799.75;4481886;31;894955;-83
2021/06/29 09:17:18;;;;;;;;;;;;;;;38.30;19.74;99796.19;4485060;31;799002;-82
2021/06/29 09:20:03;;;;;;;;;;;;;;;38.40;20.33;99792.91;4519996;31;745659;-83
2021/06/29 09:22:49;;;;;;;;;;;;;;;39.22;19.45;99786.09;4472323;31;799573;-82
2021/06/29 09:25:39;;;;;;;;;;;;;;;39.95;18.15;99780.41;4471066;31;1813432;-84
2021/06/29 09:28:27;;;;;;;;;;;;;;;39.60;18.33;99782.09;4474255;31;786784;-89
2021/06/29 09:31:10;;;;;;;;;;;;;;;39.92;18.12;99789.91;4413784;31;3623858;-84
2021/06/29 09:33:57;;;;;;;;;;;;;;;40.62;17.08;99787.22;4470361;32;800495;-82
2021/06/29 09:36:42;;;;;;;;;;;;;;;39.41;18.36;99784.94;4520931;31;754340;-85
2021/06/29 09:39:25;;;;;;;;;;;;;;;38.22;19.63;99772.81;4471693;31;840910;-82
2021/06/29 09:42:10;;;;;;;;;;;;;;;39.77;18.05;99765.88;4487890;31;795474;-84
2021/06/29 09:44:51;;;;;;;;;;;;;;;39.30;18.34;99765.88;4474166;32;783178;-85
2021/06/29 09:47:35;;;;;;;;;;;;;;;39.66;18.22;99753.88;4447320;31;2069141;-85
2021/06/29 10:00:50;;;;;;;;;;;;;;;40.05;17.46;99747.91;4467805;32;844726;-85
2021/06/29 10:03:43;;;;;;;;;;;;;;;39.52;17.80;99738.84;4503977;31;756347;-88
2021/06/29 10:06:24;;;;;;;;;;;;;;;40.86;16.35;99738.75;4476319;31;783230;-82
2021/06/29 10:09:14;;;;;;;;;;;;;;;40.94;16.15;99734.78;4515736;31;741907;-84
2021/06/29 10:26:05;;;;;;;;;;;;;;;41.08;14.99;99716.19;5254717;27;752788;-88
2021/06/29 10:28:47;;;;;;;;;;;;;;;40.34;15.77;99712.44;4484440;31;819285;-85
2021/06/29 10:31:35;;;;;;;;;;;;;;;41.39;15.00;99715.59;4493927;31;1067713;-84
2021/06/29 10:34:25;;;;;;;;;;;;;;;40.08;16.42;99711.97;4498700;31;912066;-85
2021/06/29 10:37:10;;;;;;;;;;;;;;;39.41;16.96;99715.97;4488542;31;797812;-83
2021/06/29 10:39:51;;;;;;;;;;;;;;;39.49;16.23;99712.06;4468962;32;918025;-83
2021/06/29 10:42:42;;;;;;;;;;;;;;;39.54;15.48;99704.84;4503643;31;749267;-83
2021/06/29 10:45:35;;;;;;;;;;;;;;;39.70;16.29;99695.13;4508357;31;1109425;-86
2021/06/29 10:48:26;;;;;;;;;;;;;;;40.32;16.01;99695.50;4471307;31;783811;-85
2021/06/29 10:51:14;;;;;;;;;;;;;;;39.99;16.35;99686.94;4454997;32;805411;-82
2021/06/29 10:53:54;;;;;;;;;;;;;;;40.55;15.22;99695.38;4468589;32;882337;-83
2021/06/29 11:07:05;;;;;;;;;;;;;;;40.10;15.68;99684.44;5359483;26;951903;-90
2021/06/29 11:09:54;;;;;;;;;;;;;;;39.44;15.96;99680.09;4519199;31;741361;-85
2021/06/29 11:12:48;;;;;;;;;;;;;;;39.78;15.78;99682.97;4485334;31;815840;-84
2021/06/29 11:15:44;;;;;;;;;;;;;;;39.92;16.20;99675.34;4482486;31;907946;-82
2021/06/29 11:18:38;;;;;;;;;;;;;;;39.73;16.10;99678.25;4457193;32;787591;-82
2021/06/29 11:31:44;;;;;;;;;;;;;;;40.48;16.08;99655.66;4487923;31;737971;-85
2021/06/29 11:34:28;;;;;;;;;;;;;;;39.59;16.84;99661.31;4450969;31;2030146;-83
2021/06/29 11:37:12;;;;;;;;;;;;;;;39.96;16.43;99653.88;4463436;31;790435;-85
2021/06/29 11:40:01;;;;;;;;;;;;;;;39.40;17.13;99657.09;4502366;31;851956;-86
2021/06/29 11:43:06;;;;;;;;;;;;;;;39.00;17.41;99655.09;4505723;31;744020;-90
2021/06/29 11:45:48;;;;;;;;;;;;;;;40.13;16.62;99637.56;4471959;31;806028;-86
2021/06/29 11:58:52;;;;;;;;;;;;;;;41.46;15.33;99611.53;4485109;31;817468;-85
2021/06/29 12:01:35;;;;;;;;;;;;;;;41.05;15.63;99616.44;4475769;31;789991;-85
2021/06/29 12:04:20;;;;;;;;;;;;;;;42.24;14.68;99604.16;4473356;31;790887;-86
2021/06/29 12:07:06;;;;;;;;;;;;;;;41.23;15.31;99601.62;4504917;31;792962;-86
2021/06/29 12:09:50;;;;;;;;;;;;;;;41.50;15.21;99603.63;4486386;31;802126;-87
2021/06/29 12:12:35;;;;;;;;;;;;;;;41.22;15.69;99589.87;4492945;31;1143983;-85
2021/06/29 12:15:23;;;;;;;;;;;;;;;40.90;15.71;99593.25;4485699;31;790602;-83
2021/06/29 12:18:09;;;;;;;;;;;;;;;41.83;15.46;99597.19;4453253;31;2197354;-84
2021/06/29 12:20:53;;;;;;;;;;;;;;;41.73;15.26;99580.66;4468703;31;882935;-85
2021/06/29 12:33:55;;;;;;;;;;;;;;;41.52;15.33;99565.94;4472208;31;740570;-86
2021/06/29 12:36:41;;;;;;;;;;;;;;;41.38;15.35;99566.34;4485509;31;800509;-85
2021/06/29 12:39:25;;;;;;;;;;;;;;;42.46;14.24;99563.81;4467972;31;884041;-85
2021/06/29 12:42:14;;;;;;;;;;;;;;;41.46;14.90;99559.59;4467592;31;849412;-87
2021/06/29 12:45:11;;;;;;;;;;;;;;;41.67;14.65;99557.06;4519240;31;754053;-87
2021/06/29 12:48:07;;;;;;;;;;;;;;;41.39;14.86;99548.00;4463672;31;968030;-85
2021/06/29 12:51:02;;;;;;;;;;;;;;;42.17;14.39;99541.41;4504653;31;738434;-88
2021/06/29 12:53:54;;;;;;;;;;;;;;;42.58;13.79;99543.59;4460579;31;896285;-85
2021/06/29 12:56:46;;;;;;;;;;;;;;;41.69;14.51;99534.69;4470480;32;808275;-86
2021/06/29 12:59:41;;;;;;;;;;;;;;;41.29;15.24;99532.31;4500751;31;898769;-90
2021/06/29 13:02:34;;;;;;;;;;;;;;;41.78;14.15;99515.06;4502440;31;793316;-85
2021/06/29 13:05:20;;;;;;;;;;;;;;;42.24;14.21;99517.41;4471659;31;791740;-86
2021/06/29 13:08:16;;;;;;;;;;;;;;;40.73;16.02;99516.03;4518025;31;807863;-86
2021/06/29 13:11:17;;;;;;;;;;;;;;;40.58;16.27;99508.41;4485348;31;853979;-86
2021/06/29 13:24:38;;;;;;;;;;;;;;;41.09;15.16;99499.16;5290902;26;965044;-86
2021/06/29 13:27:38;;;;;;;;;;;;;;;42.54;13.78;99487.31;4499428;31;896370;-94
2021/06/29 13:30:32;;;;;;;;;;;;;;;43.28;13.20;99484.00;4502032;31;822759;-94
2021/06/29 13:33:14;;;;;;;;;;;;;;;42.83;13.37;99477.22;4486107;31;815095;-87
2021/06/29 13:35:58;;;;;;;;;;;;;;;41.86;14.13;99483.72;4467171;32;925197;-85
2021/06/29 13:38:57;;;;;;;;;;;;;;;41.43;14.61;99482.75;4519382;31;757431;-86
2021/06/29 13:41:46;;;;;;;;;;;;;;;41.49;14.07;99468.03;4485655;31;843321;-86
2021/06/29 13:44:51;;;;;;;;;;;;;;;41.55;14.09;99473.31;4497924;31;950127;-89
2021/06/29 13:47:45;;;;;;;;;;;;;;;42.35;13.74;99464.38;4470330;32;830938;-85
2021/06/29 13:50:42;;;;;;;;;;;;;;;41.94;13.84;99468.72;4503388;31;823074;-82
2021/06/29 13:53:31;;;;;;;;;;;;;;;40.91;14.86;99462.97;4489071;31;798926;-82
2021/06/29 13:56:41;;;;;;;;;;;;;;;40.95;14.98;99471.53;4471069;32;816822;-87
2021/06/29 14:09:50;;;;;;;;;;;;;;;40.19;15.43;99451.91;5336475;26;751652;-88
2021/06/29 14:12:40;;;;;;;;;;;;;;;41.95;14.35;99440.28;4469323;31;822461;-85
2021/06/29 14:15:29;;;;;;;;;;;;;;;41.01;15.03;99437.75;4468157;32;806975;-86
2021/06/29 14:18:22;;;;;;;;;;;;;;;42.71;13.76;99428.19;4451193;32;861574;-85
2021/06/29 14:21:09;;;;;;;;;;;;;;;43.20;13.63;99429.69;4470281;31;787112;-84
2021/06/29 14:24:04;;;;;;;;;;;;;;;41.12;15.34;99419.56;4505371;31;741121;-89
2021/06/29 14:26:48;;;;;;;;;;;;;;;40.98;15.44;99421.84;4468115;32;810449;-85
2021/06/29 14:29:37;;;;;;;;;;;;;;;41.14;15.22;99418.22;4484673;31;790938;-84
2021/06/29 14:32:22;;;;;;;;;;;;;;;41.81;14.64;99410.66;4470534;32;787538;-85
2021/06/29 14:45:45;;;;;;;;;;;;;;;42.11;12.61;99402.91;4501660;31;797146;-86
2021/06/29 14:58:56;;;;;;;;;;;;;;;40.87;14.87;99388.94;4482790;31;899270;-85
2021/06/29 15:01:41;;;;;;;;;;;;;;;40.92;14.81;99381.91;4442913;32;796559;-86
2021/06/29 15:04:29;;;;;;;;;;;;;;;41.04;15.04;99386.13;4470193;31;804576;-85
2021/06/29 15:17:36;;;;;;;;;;;;;;;40.84;15.12;99378.53;4439861;32;802096;-85
2021/06/29 15:20:21;;;;;;;;;;;;;;;39.78;16.38;99374.91;4468970;31;788914;-85
2021/06/29 15:23:09;;;;;;;;;;;;;;;39.48;16.57;99373.31;4502095;31;798207;-85
2021/06/29 15:25:55;;;;;;;;;;;;;;;40.27;16.15;99370.72;4471829;31;794534;-88
2021/06/29 15:28:41;;;;;;;;;;;;;;;40.99;13.25;99353.31;4469045;31;869815;-86
2021/06/29 15:31:30;;;;;;;;;;;;;;;40.94;13.01;99357.88;4469276;32;792301;-85
2021/06/29 15:34:15;;;;;;;;;;;;;;;41.35;12.97;99356.38;4470076;32;805419;-84
2021/06/29 15:37:00;;;;;;;;;;;;;;;40.15;14.17;99352.53;4465219;32;914540;-84
2021/06/29 15:59:53;;;;;;;;;;;;;;;42.62;12.59;99328.44;5271132;27;794117;-85
2021/06/29 16:02:47;;;;;;;;;;;;;;;42.13;13.30;99329.59;4518529;31;763036;-85
2021/06/29 16:05:39;;;;;;;;;;;;;;;41.36;14.09;99330.69;4504631;31;746921;-89
2021/06/29 16:08:21;;;;;;;;;;;;;;;41.63;14.05;99318.06;4467813;31;827818;-84
2021/06/29 16:11:06;;;;;;;;;;;;;;;41.22;14.47;99318.56;4468654;31;803551;-84
2021/06/29 16:13:56;;;;;;;;;;;;;;;41.99;13.77;99312.81;4468651;31;803933;-85
2021/06/29 16:16:43;;;;;;;;;;;;;;;41.26;14.64;99319.69;4504594;31;797595;-89
2021/06/29 16:19:27;;;;;;;;;;;;;;;40.98;14.78;99312.59;4470075;31;801253;-85
2021/06/29 16:22:15;;;;;;;;;;;;;;;41.22;14.67;99322.13;4468482;31;807868;-84
2021/06/29 16:25:00;;;;;;;;;;;;;;;40.97;14.09;99316.44;4438793;31;1812808;-85
2021/06/29 16:27:49;;;;;;;;;;;;;;;41.34;14.26;99318.38;4470141;32;804212;-84
2021/06/29 16:30:34;;;;;;;;;;;;;;;41.11;14.49;99322.28;4469578;32;822659;-82
2021/06/29 16:33:26;;;;;;;;;;;;;;;39.68;15.39;99321.06;4469253;31;788564;-85
2021/06/29 16:36:10;;;;;;;;;;;;;;;40.86;14.21;99319.03;4470750;32;788991;-85
2021/06/29 16:38:55;;;;;;;;;;;;;;;42.32;12.88;99316.28;4470213;32;804678;-85
2021/06/29 16:41:44;;;;;;;;;;;;;;;42.46;12.97;99319.38;4484416;31;808714;-83
2021/06/29 16:44:32;;;;;;;;;;;;;;;41.82;13.41;99308.37;4484244;31;816866;-85
2021/06/29 16:47:21;;;;;;;;;;;;;;;41.78;13.29;99307.22;4470529;32;795174;-85
2021/06/29 16:50:06;;;;;;;;;;;;;;;42.30;12.97;99304.81;4470776;32;792365;-86
2021/06/29 16:52:54;;;;;;;;;;;;;;;41.82;13.55;99311.12;4470087;32;810116;-85
2021/06/29 16:55:43;;;;;;;;;;;;;;;42.77;12.86;99316.72;4469232;32;790196;-85
2021/06/29 16:58:29;;;;;;;;;;;;;;;41.33;13.67;99308.53;4470385;32;799277;-86
2021/06/29 17:01:17;;;;;;;;;;;;;;;40.87;13.96;99307.03;4454762;32;922859;-83
2021/06/29 17:04:06;;;;;;;;;;;;;;;41.58;13.66;99307.09;4470526;31;793276;-86
2021/06/29 17:06:54;;;;;;;;;;;;;;;41.54;13.81;99307.63;4469192;31;786567;-85
2021/06/29 17:09:43;;;;;;;;;;;;;;;42.37;13.29;99308.91;4471766;31;743143;-85
2021/06/29 17:12:34;;;;;;;;;;;;;;;41.72;13.68;99314.59;4504538;31;747158;-88
2021/06/29 17:15:21;;;;;;;;;;;;;;;41.58;13.83;99298.88;4485851;31;801895;-86
2021/06/29 17:18:11;;;;;;;;;;;;;;;41.09;14.40;99308.03;4518631;31;756855;-85
2021/06/29 17:21:07;;;;;;;;;;;;;;;42.01;13.49;99299.72;4505523;31;744312;-87
2021/06/29 17:23:52;;;;;;;;;;;;;;;41.49;14.05;99298.56;4470485;32;795022;-86
2021/06/29 17:26:44;;;;;;;;;;;;;;;41.38;13.79;99309.44;4505870;31;742017;-89
2021/06/29 17:29:32;;;;;;;;;;;;;;;41.39;13.85;99304.78;4468537;32;803543;-85
2021/06/29 17:32:22;;;;;;;;;;;;;;;41.65;13.62;99305.78;4470533;32;787601;-84
2021/06/29 17:35:14;;;;;;;;;;;;;;;40.74;14.69;99305.53;4504761;31;734083;-87
2021/06/29 17:38:05;;;;;;;;;;;;;;;40.74;14.63;99300.06;4501236;31;820065;-83
2021/06/29 17:40:54;;;;;;;;;;;;;;;41.10;14.45;99298.78;4468734;32;798896;-86
2021/06/29 17:43:44;;;;;;;;;;;;;;;40.60;14.80;99298.81;4519071;31;745052;-85
2021/06/29 17:46:32;;;;;;;;;;;;;;;41.06;14.56;99293.84;4468878;31;796286;-84
2021/06/29 17:49:17;;;;;;;;;;;;;;;40.65;15.02;99298.03;4468474;32;812523;-85
2021/06/29 17:52:04;;;;;;;;;;;;;;;41.00;14.83;99297.59;4471499;31;760804;-85
2021/06/29 17:54:49;;;;;;;;;;;;;;;41.20;14.88;99296.94;4469219;31;797184;-86
2021/06/29 18:07:53;;;;;;;;;;;;;;;42.05;15.38;99300.84;4467664;31;946571;-85
2021/06/29 18:21:02;;;;;;;;;;;;;;;41.61;16.74;99301.13;5341387;26;739212;-90
2021/06/29 18:23:43;;;;;;;;;;;;;;;41.87;16.54;99297.47;4471822;32;790985;-84
2021/06/29 18:36:50;;;;;;;;;;;;;;;40.97;18.05;99287.19;4457371;32;789669;-87
2021/06/29 18:39:38;;;;;;;;;;;;;;;40.60;18.29;99287.09;4473123;31;791775;-84
2021/06/29 18:42:25;;;;;;;;;;;;;;;40.10;18.82;99289.75;4473070;32;793329;-84
2021/06/29 18:45:14;;;;;;;;;;;;;;;39.39;19.69;99293.88;4474076;31;755290;-85
2021/06/29 18:47:59;;;;;;;;;;;;;;;39.85;19.16;99288.31;4473227;31;790752;-85
2021/06/29 18:50:48;;;;;;;;;;;;;;;40.44;18.51;99297.78;4472690;31;800862;-84
2021/06/29 18:53:38;;;;;;;;;;;;;;;39.78;19.33;99293.09;4473085;31;789942;-85
2021/06/29 18:56:28;;;;;;;;;;;;;;;39.63;19.43;99296.44;4471460;32;803886;-86
2021/06/29 18:59:17;;;;;;;;;;;;;;;40.07;18.89;99298.44;4487253;31;800234;-85
2021/06/29 19:02:02;;;;;;;;;;;;;;;40.04;18.85;99299.75;4454070;32;793299;-84
2021/06/29 19:04:47;;;;;;;;;;;;;;;39.83;18.88;99298.63;4470187;32;800078;-85
2021/06/29 19:07:32;;;;;;;;;;;;;;;40.35;18.30;99299.31;4468816;32;795544;-85
2021/06/29 19:10:18;;;;;;;;;;;;;;;40.04;20.36;99304.38;4469023;32;837825;-84
2021/06/29 19:13:08;;;;;;;;;;;;;;;40.32;20.18;99306.13;4471186;31;759551;-84
2021/06/29 19:15:58;;;;;;;;;;;;;;;39.78;20.58;99306.72;4470464;32;791832;-86
2021/06/29 19:18:43;;;;;;;;;;;;;;;39.61;20.70;99306.75;4468954;31;794291;-85
2021/06/29 19:21:31;;;;;;;;;;;;;;;39.79;20.36;99300.22;4470611;32;790108;-84
2021/06/29 19:24:15;;;;;;;;;;;;;;;39.78;20.60;99308.66;4470360;32;799101;-86
2021/06/29 19:27:01;;;;;;;;;;;;;;;39.87;20.58;99318.03;4470043;31;802884;-85
2021/06/29 19:40:07;;;;;;;;;;;;;;;39.20;21.48;99319.72;4468170;31;839300;-84
2021/06/29 19:42:56;;;;;;;;;;;;;;;39.56;21.34;99326.56;4470288;32;794942;-84
2021/06/29 19:45:45;;;;;;;;;;;;;;;39.13;21.89;99324.47;4468556;32;810082;-85
2021/06/29 19:48:32;;;;;;;;;;;;;;;38.99;22.10;99313.06;4469092;32;800593;-85
2021/06/29 19:51:19;;;;;;;;;;;;;;;38.63;22.32;99315.91;4469639;31;758999;-84
2021/06/29 19:54:04;;;;;;;;;;;;;;;38.65;22.48;99307.50;4470195;31;799456;-85
2021/06/29 19:56:51;;;;;;;;;;;;;;;39.19;21.80;99309.91;4501885;31;798434;-87
2021/06/29 19:59:44;;;;;;;;;;;;;;;38.55;22.66;99310.88;4504840;31;740109;-87